createdAt,value
2023-04-27T00:01:58.464Z,11.80
2023-04-27T00:07:01.505Z,12.10
2023-04-27T00:12:04.573Z,12.30
2023-04-27T00:17:08.795Z,12.40
2023-04-27T00:22:12.039Z,12.30
2023-04-27T00:27:14.931Z,12.40
2023-04-27T00:32:19.627Z,12.10
2023-04-27T00:37:22.564Z,11.80
2023-04-27T00:42:25.521Z,11.80
2023-04-27T00:47:30.221Z,11.70
2023-04-27T00:52:33.200Z,11.50
2023-04-27T00:57:36.173Z,11.70
2023-04-27T01:02:42.299Z,11.80
2023-04-27T01:07:45.306Z,11.80
2023-04-27T01:12:48.223Z,11.90
2023-04-27T01:17:58.825Z,11.90
2023-04-27T01:23:01.817Z,11.80
2023-04-27T01:28:06.304Z,11.80
2023-04-27T01:33:09.276Z,11.70
2023-04-27T01:38:12.340Z,11.70
2023-04-27T01:43:16.572Z,11.70
2023-04-27T01:48:19.427Z,11.70
2023-04-27T01:53:22.342Z,11.50
2023-04-27T01:58:26.746Z,11.40
2023-04-27T02:03:29.843Z,11.50
2023-04-27T02:08:32.950Z,11.70
2023-04-27T02:13:37.818Z,11.60
2023-04-27T02:18:41.686Z,11.60
2023-04-27T02:23:45.948Z,11.60
2023-04-27T02:28:50.991Z,11.50
2023-04-27T02:33:54.252Z,11.40
2023-04-27T02:38:57.160Z,11.30
2023-04-27T02:44:01.417Z,11.40
2023-04-27T02:49:04.382Z,11.30
2023-04-27T02:54:07.286Z,11.20
2023-04-27T02:59:11.687Z,11.20
2023-04-27T03:04:17.525Z,11.30
2023-04-27T03:09:20.624Z,11.30
2023-04-27T03:14:24.886Z,11.30
2023-04-27T03:19:27.960Z,11.10
2023-04-27T03:24:31.037Z,11.20
2023-04-27T03:29:35.381Z,11.30
2023-04-27T03:34:38.291Z,11.40
2023-04-27T03:39:41.761Z,11.30
2023-04-27T03:44:47.320Z,11.30
2023-04-27T03:49:50.261Z,11.30
2023-04-27T03:54:53.159Z,11.30
2023-04-27T03:59:58.812Z,11.50
2023-04-27T04:05:02.053Z,11.30
2023-04-27T04:10:05.688Z,11.20
2023-04-27T04:15:12.215Z,11.10
2023-04-27T04:20:15.353Z,11.00
2023-04-27T04:25:18.797Z,11.00
2023-04-27T04:30:23.901Z,11.10
2023-04-27T04:35:26.834Z,10.80
2023-04-27T04:40:29.849Z,10.80
2023-04-27T04:45:34.274Z,10.70
2023-04-27T04:50:37.228Z,10.80
2023-04-27T04:55:41.043Z,11.00
2023-04-27T05:00:46.684Z,11.10
2023-04-27T05:05:49.626Z,11.10
2023-04-27T05:10:52.818Z,11.10
2023-04-27T05:15:57.226Z,11.10
2023-04-27T05:21:00.263Z,11.20
2023-04-27T05:26:03.173Z,11.30
2023-04-27T05:31:07.484Z,11.40
2023-04-27T05:36:11.012Z,11.40
2023-04-27T05:41:13.986Z,11.50
2023-04-27T05:46:18.274Z,11.40
2023-04-27T05:51:21.362Z,11.40
2023-04-27T05:56:24.265Z,11.40
2023-04-27T06:01:28.580Z,11.50
2023-04-27T06:06:33.365Z,11.50
2023-04-27T06:11:36.256Z,11.60
2023-04-27T06:16:41.284Z,11.70
2023-04-27T06:21:44.182Z,11.70
2023-04-27T06:26:47.074Z,11.80
2023-04-27T06:31:51.335Z,11.80
2023-04-27T06:36:54.243Z,12.00
2023-04-27T06:41:57.318Z,12.10
2023-04-27T06:47:02.921Z,12.00
2023-04-27T06:52:06.569Z,12.00
2023-04-27T06:57:09.472Z,12.00
2023-04-27T07:02:13.728Z,12.20
2023-04-27T07:07:16.642Z,12.30
2023-04-27T07:12:19.594Z,12.40
2023-04-27T07:17:23.876Z,12.30
2023-04-27T07:22:26.772Z,12.50
2023-04-27T07:27:29.670Z,12.60
2023-04-27T07:32:33.965Z,12.70
2023-04-27T07:37:37.327Z,12.70
2023-04-27T07:42:41.308Z,12.70
2023-04-27T07:47:46.314Z,12.80
2023-04-27T07:52:49.172Z,12.90
2023-04-27T07:57:53.032Z,12.90
2023-04-27T08:02:57.776Z,13.10
2023-04-27T08:08:01.058Z,13.10
2023-04-27T08:13:04.825Z,13.10
2023-04-27T08:18:09.117Z,13.40
2023-04-27T08:23:12.407Z,13.40
2023-04-27T08:28:16.526Z,13.50
2023-04-27T08:33:20.834Z,13.60
2023-04-27T08:38:25.605Z,13.80
2023-04-27T08:43:33.265Z,14.00
2023-04-27T08:48:37.502Z,14.20
2023-04-27T08:53:49.196Z,14.00
2023-04-27T08:58:52.526Z,14.20
2023-04-27T09:04:01.980Z,14.20
2023-04-27T09:09:06.968Z,14.30
2023-04-27T09:14:18.271Z,14.40
2023-04-27T09:19:27.415Z,14.50
2023-04-27T09:24:30.547Z,14.60
2023-04-27T09:29:34.570Z,14.80
2023-04-27T09:34:42.019Z,14.70
2023-04-27T09:39:46.510Z,14.80
2023-04-27T09:44:50.133Z,15.30
2023-04-27T09:49:54.382Z,15.40
2023-04-27T09:55:00.306Z,15.30
2023-04-27T10:00:17.209Z,15.60
2023-04-27T10:05:35.968Z,16.10
2023-04-27T10:10:54.386Z,16.10
2023-04-27T10:15:57.255Z,16.20
2023-04-27T10:21:12.411Z,16.50
2023-04-27T10:26:22.978Z,16.60
2023-04-27T10:31:29.190Z,16.30
2023-04-27T10:36:38.018Z,16.50
2023-04-27T10:41:50.994Z,16.80
2023-04-27T10:46:54.793Z,17.00
2023-04-27T10:52:00.780Z,17.30
2023-04-27T10:57:05.313Z,17.30
2023-04-27T11:02:12.237Z,17.10
2023-04-27T11:07:26.395Z,17.10
2023-04-27T11:12:29.432Z,17.30
2023-04-27T11:17:33.881Z,17.70
2023-04-27T11:22:45.302Z,17.60
2023-04-27T11:27:48.167Z,18.00
2023-04-27T11:32:51.756Z,18.10
2023-04-27T11:37:59.523Z,18.30
2023-04-27T11:43:04.396Z,17.90
2023-04-27T11:48:08.347Z,17.70
2023-04-27T11:53:12.611Z,17.50
2023-04-27T11:58:16.194Z,18.00
2023-04-27T12:03:19.260Z,18.40
2023-04-27T12:08:24.129Z,18.50
2023-04-27T12:13:27.219Z,18.10
2023-04-27T12:18:30.146Z,18.20
2023-04-27T12:23:34.465Z,18.10
2023-04-27T12:28:38.124Z,18.00
2023-04-27T12:33:40.984Z,18.20
2023-04-27T12:38:47.261Z,18.20
2023-04-27T12:43:50.197Z,18.10
2023-04-27T12:48:53.187Z,18.30
2023-04-27T12:53:58.716Z,18.20
2023-04-27T12:59:03.892Z,18.50
2023-04-27T13:04:08.105Z,18.70
2023-04-27T13:09:13.186Z,18.60
2023-04-27T13:14:16.306Z,18.50
2023-04-27T13:19:19.473Z,18.70
2023-04-27T13:24:24.621Z,18.70
2023-04-27T13:29:27.501Z,18.90
2023-04-27T13:34:30.413Z,18.70
2023-04-27T13:39:34.945Z,18.60
2023-04-27T13:44:37.883Z,18.80
2023-04-27T13:49:40.775Z,18.90
2023-04-27T13:54:45.307Z,19.10
2023-04-27T13:59:48.203Z,19.40
2023-04-27T14:04:51.721Z,19.50
2023-04-27T14:09:55.968Z,19.50
2023-04-27T14:14:58.914Z,19.70
2023-04-27T14:20:01.827Z,19.70
2023-04-27T14:25:07.031Z,19.90
2023-04-27T14:30:10.877Z,19.80
2023-04-27T14:35:13.804Z,19.80
2023-04-27T14:40:18.262Z,19.80
2023-04-27T14:45:22.895Z,19.50
2023-04-27T14:50:27.147Z,19.60
2023-04-27T14:55:31.565Z,19.80
2023-04-27T15:00:34.696Z,19.70
2023-04-27T15:05:37.657Z,19.70
2023-04-27T15:10:41.879Z,19.80
2023-04-27T15:15:46.095Z,19.70
2023-04-27T15:20:52.629Z,20.00
2023-04-27T15:25:59.197Z,20.00
2023-04-27T15:31:02.145Z,20.00
2023-04-27T15:36:05.580Z,20.00
2023-04-27T15:41:10.173Z,20.20
2023-04-27T15:46:14.722Z,20.10
2023-04-27T15:51:17.784Z,20.20
2023-04-27T15:56:22.066Z,20.40
2023-04-27T16:01:26.332Z,20.50
2023-04-27T16:06:34.930Z,20.50
2023-04-27T16:11:39.653Z,20.50
2023-04-27T16:16:42.581Z,20.40
2023-04-27T16:21:48.098Z,20.60
2023-04-27T16:26:52.417Z,20.60
2023-04-27T16:31:55.485Z,20.70
2023-04-27T16:36:58.544Z,20.40
2023-04-27T16:42:09.683Z,20.20
2023-04-27T16:47:12.735Z,20.20
2023-04-27T16:52:17.113Z,20.30
2023-04-27T16:57:21.549Z,20.40
2023-04-27T17:02:25.873Z,20.40
2023-04-27T17:07:32.715Z,20.50
2023-04-27T17:12:38.109Z,20.40
2023-04-27T17:17:41.285Z,20.10
2023-04-27T17:22:45.131Z,20.00
2023-04-27T17:27:49.372Z,20.00
2023-04-27T17:32:52.678Z,19.90
2023-04-27T17:37:55.868Z,20.00
2023-04-27T17:43:00.223Z,20.00
2023-04-27T17:48:03.434Z,20.20
2023-04-27T17:53:06.447Z,20.20
2023-04-27T17:58:11.205Z,20.20
2023-04-27T18:03:15.334Z,20.20
2023-04-27T18:08:18.548Z,20.20
2023-04-27T18:13:22.833Z,19.80
2023-04-27T18:18:26.853Z,19.60
2023-04-27T18:23:37.062Z,19.70
2023-04-27T18:28:41.772Z,19.60
2023-04-27T18:33:46.378Z,19.60
2023-04-27T18:38:49.262Z,19.40
2023-04-27T18:43:53.658Z,19.40
2023-04-27T18:48:56.587Z,19.30
2023-04-27T18:53:59.594Z,19.20
2023-04-27T18:59:05.484Z,19.00
2023-04-27T19:04:08.727Z,19.00
2023-04-27T19:09:11.875Z,18.90
2023-04-27T19:14:16.606Z,18.60
2023-04-27T19:19:19.731Z,18.70
2023-04-27T19:24:22.701Z,18.60
2023-04-27T19:29:27.408Z,18.60
2023-04-27T19:34:30.306Z,18.60
2023-04-27T19:39:34.671Z,18.60
2023-04-27T19:44:38.917Z,18.40
2023-04-27T19:49:41.832Z,18.20
2023-04-27T19:54:44.740Z,18.30
2023-04-27T19:59:49.122Z,18.20
2023-04-27T20:04:52.131Z,18.20
2023-04-27T20:09:55.317Z,18.00
2023-04-27T20:14:59.625Z,17.90
2023-04-27T20:20:02.906Z,18.00
2023-04-27T20:25:07.785Z,17.90
2023-04-27T20:30:12.797Z,17.80
2023-04-27T20:35:15.794Z,17.90
2023-04-27T20:40:18.954Z,17.80
2023-04-27T20:45:23.392Z,17.70
2023-04-27T20:50:26.419Z,17.70
2023-04-27T20:55:29.361Z,17.40
2023-04-27T21:00:33.602Z,16.90
2023-04-27T21:05:36.685Z,17.30
2023-04-27T21:10:39.619Z,16.80
2023-04-27T21:15:43.868Z,17.10
2023-04-27T21:20:46.786Z,17.10
2023-04-27T21:25:49.684Z,17.00
2023-04-27T21:30:54.001Z,17.00
2023-04-27T21:35:57.159Z,17.00
2023-04-27T21:41:00.246Z,16.70
2023-04-27T21:46:04.541Z,16.70
2023-04-27T21:51:07.500Z,16.50
2023-04-27T21:56:10.864Z,16.50
2023-04-27T22:01:15.153Z,16.20
2023-04-27T22:06:18.056Z,16.30
2023-04-27T22:11:21.221Z,16.30
2023-04-27T22:16:25.674Z,16.20
2023-04-27T22:21:28.913Z,16.40
2023-04-27T22:26:32.127Z,16.50
2023-04-27T22:31:36.560Z,16.60
2023-04-27T22:36:39.473Z,16.70
2023-04-27T22:41:42.363Z,16.80
2023-04-27T22:46:46.787Z,16.70
2023-04-27T22:51:50.224Z,16.80
2023-04-27T22:56:53.145Z,16.70
2023-04-27T23:01:57.415Z,16.70
2023-04-27T23:07:00.515Z,16.60
2023-04-27T23:12:04.118Z,16.40
2023-04-27T23:17:08.404Z,16.30
2023-04-27T23:22:11.294Z,16.40
2023-04-27T23:27:14.161Z,16.50
2023-04-27T23:32:18.403Z,16.40
2023-04-27T23:37:21.408Z,16.40
2023-04-27T23:42:24.248Z,16.30
2023-04-27T23:47:28.452Z,16.30
2023-04-27T23:52:31.332Z,16.30
2023-04-27T23:57:34.208Z,16.30
